Broxburn, United Kingdom
Current Conditions -  °F | °C
As of 9:20 AM on Wednesday 28 Jan 2015 (Local Time) from EGPH Reporting Station
Few Clouds Few Clouds  
Wind Chill: 28°   Ceiling: Unl
Heat Index: 37°   Visibility: 6mi
Dew Point: 34°   Wind: 17mph
Humidity: 87%   Direction: 250°WSW
Pressure: 29.21"   Gusts: NA
Location:  55.93°N, 3.47°W
Report Text: EGPH 280920Z 25015KT 9999 FEW016 03/01 Q0989
Loading
Personal Weather Stations






























Interactive Weather Map New forecast layout! Learn more

10-Day Weather Forecast

Advertisements
Track Severe Weather on mobile